createdAt,value
2023-04-15T00:02:22.838Z,65.80
2023-04-15T00:04:49.410Z,66.67
2023-04-15T00:07:16.031Z,66.81
2023-04-15T00:09:42.474Z,65.94
2023-04-15T00:12:08.896Z,65.71
2023-04-15T00:14:35.302Z,65.85
2023-04-15T00:17:01.773Z,67.75
2023-04-15T00:19:28.199Z,67.19
2023-04-15T00:21:54.613Z,66.51
2023-04-15T00:24:21.002Z,67.36
2023-04-15T00:26:47.433Z,66.30
2023-04-15T00:29:13.833Z,66.57
2023-04-15T00:31:40.226Z,66.17
2023-04-15T00:34:06.633Z,67.14
2023-04-15T00:36:33.015Z,66.42
2023-04-15T00:38:59.493Z,66.47
2023-04-15T00:41:26.083Z,66.56
2023-04-15T00:43:52.486Z,65.69
2023-04-15T00:46:18.979Z,66.49
2023-04-15T00:48:45.364Z,65.96
2023-04-15T00:51:11.765Z,64.92
2023-04-15T00:53:38.161Z,65.41
2023-04-15T00:56:04.549Z,65.72
2023-04-15T00:58:30.915Z,65.61
2023-04-15T01:00:57.310Z,65.54
2023-04-15T01:03:23.929Z,65.37
2023-04-15T01:05:50.439Z,64.51
2023-04-15T01:08:16.836Z,65.60
2023-04-15T01:10:43.233Z,65.26
2023-04-15T01:13:09.656Z,64.56
2023-04-15T01:15:36.051Z,64.79
2023-04-15T01:18:02.451Z,66.04
2023-04-15T01:20:28.954Z,66.56
2023-04-15T01:22:55.342Z,66.97
2023-04-15T01:25:21.743Z,67.38
2023-04-15T01:27:48.167Z,68.21
2023-04-15T01:30:14.550Z,67.43
2023-04-15T01:32:41.030Z,66.54
2023-04-15T01:35:07.495Z,66.31
2023-04-15T01:37:33.873Z,66.67
2023-04-15T01:40:00.351Z,68.72
2023-04-15T01:42:26.768Z,68.23
2023-04-15T01:44:53.165Z,68.19
2023-04-15T01:47:19.565Z,67.84
2023-04-15T01:49:45.978Z,68.99
2023-04-15T01:52:12.381Z,69.09
2023-04-15T01:54:38.764Z,69.66
2023-04-15T01:57:05.180Z,70.63
2023-04-15T01:59:31.596Z,69.90
2023-04-15T02:01:58.042Z,69.38
2023-04-15T02:04:24.496Z,70.68
2023-04-15T02:06:50.945Z,70.65
2023-04-15T02:09:17.337Z,71.44
2023-04-15T02:11:43.733Z,71.99
2023-04-15T02:14:10.140Z,72.65
2023-04-15T02:16:36.590Z,72.47
2023-04-15T02:19:03.098Z,72.32
2023-04-15T02:21:29.539Z,73.47
2023-04-15T02:23:55.915Z,74.22
2023-04-15T02:26:22.311Z,73.54
2023-04-15T02:28:48.690Z,74.03
2023-04-15T02:31:15.123Z,74.86
2023-04-15T02:33:41.531Z,74.75
2023-04-15T02:36:07.906Z,74.71
2023-04-15T02:38:34.363Z,75.04
2023-04-15T02:41:00.761Z,74.70
2023-04-15T02:43:27.158Z,74.96
2023-04-15T02:45:53.588Z,75.35
2023-04-15T02:48:20.045Z,74.78
2023-04-15T02:50:46.514Z,74.79
2023-04-15T02:53:12.897Z,75.50
2023-04-15T02:55:39.299Z,75.19
2023-04-15T02:58:05.686Z,75.46
2023-04-15T03:00:32.074Z,75.10
2023-04-15T03:02:58.681Z,75.54
2023-04-15T03:05:25.332Z,75.03
2023-04-15T03:07:51.749Z,74.84
2023-04-15T03:10:18.137Z,74.81
2023-04-15T03:12:44.522Z,74.27
2023-04-15T03:15:10.934Z,73.98
2023-04-15T03:17:37.346Z,74.36
2023-04-15T03:20:03.796Z,74.59
2023-04-15T03:22:30.207Z,74.84
2023-04-15T03:24:56.645Z,75.04
2023-04-15T03:27:23.079Z,74.97
2023-04-15T03:29:49.532Z,75.14
2023-04-15T03:32:15.981Z,74.95
2023-04-15T03:34:42.429Z,75.27
2023-04-15T03:37:08.861Z,75.15
2023-04-15T03:39:35.281Z,75.57
2023-04-15T03:42:01.715Z,75.38
2023-04-15T03:44:28.083Z,76.07
2023-04-15T03:46:54.531Z,76.08
2023-04-15T03:49:20.942Z,75.91
2023-04-15T03:51:47.451Z,75.89
2023-04-15T03:54:13.868Z,75.81
2023-04-15T03:56:40.265Z,76.14
2023-04-15T03:59:06.669Z,75.61
2023-04-15T04:01:33.110Z,75.33
2023-04-15T04:03:59.581Z,75.89
2023-04-15T04:06:26.029Z,76.27
2023-04-15T04:08:52.406Z,76.14
2023-04-15T04:11:18.817Z,76.68
2023-04-15T04:13:45.216Z,77.24
2023-04-15T04:16:11.662Z,76.94
2023-04-15T04:18:38.296Z,76.81
2023-04-15T04:21:04.682Z,77.19
2023-04-15T04:23:31.101Z,77.09
2023-04-15T04:25:57.478Z,77.38
2023-04-15T04:28:23.909Z,77.06
2023-04-15T04:30:50.312Z,76.95
2023-04-15T04:33:16.756Z,77.79
2023-04-15T04:35:43.130Z,77.90
2023-04-15T04:38:09.514Z,77.31
2023-04-15T04:40:35.909Z,77.59
2023-04-15T04:43:02.300Z,77.89
2023-04-15T04:45:28.729Z,78.15
2023-04-15T04:47:55.174Z,78.05
2023-04-15T04:50:21.556Z,78.05
2023-04-15T04:52:47.953Z,77.80
2023-04-15T04:55:14.327Z,78.27
2023-04-15T04:57:40.740Z,78.00
2023-04-15T05:00:07.141Z,78.94
2023-04-15T05:02:33.680Z,78.55
2023-04-15T05:05:00.242Z,78.19
2023-04-15T05:07:26.661Z,78.51
2023-04-15T05:09:53.066Z,79.18
2023-04-15T05:12:19.491Z,78.63
2023-04-15T05:14:45.880Z,78.53
2023-04-15T05:17:12.318Z,77.87
2023-04-15T05:19:39.918Z,78.06
2023-04-15T05:22:06.324Z,78.22
2023-04-15T05:24:32.747Z,78.06
2023-04-15T05:26:59.160Z,78.25
2023-04-15T05:29:25.545Z,78.40
2023-04-15T05:31:51.948Z,77.75
2023-04-15T05:34:18.370Z,77.93
2023-04-15T05:36:44.767Z,78.19
2023-04-15T05:39:11.156Z,78.12
2023-04-15T05:41:37.547Z,78.10
2023-04-15T05:44:04.184Z,77.82
2023-04-15T05:46:30.627Z,78.35
2023-04-15T05:48:57.105Z,77.82
2023-04-15T05:51:23.552Z,77.58
2023-04-15T05:53:49.963Z,77.47
2023-04-15T05:56:16.376Z,77.60
2023-04-15T05:58:42.772Z,77.34
2023-04-15T06:01:09.177Z,77.30
2023-04-15T06:03:35.854Z,77.10
2023-04-15T06:06:02.417Z,77.64
2023-04-15T06:08:28.827Z,77.71
2023-04-15T06:10:55.215Z,77.85
2023-04-15T06:13:21.638Z,77.46
2023-04-15T06:15:48.065Z,77.54
2023-04-15T06:18:14.494Z,77.66
2023-04-15T06:20:40.928Z,77.39
2023-04-15T06:23:07.409Z,77.65
2023-04-15T06:25:33.813Z,77.64
2023-04-15T06:28:00.209Z,77.77
2023-04-15T06:30:26.589Z,78.02
2023-04-15T06:32:53.055Z,77.45
2023-04-15T06:35:19.601Z,78.03
2023-04-15T06:37:46.019Z,78.01
2023-04-15T06:40:12.414Z,77.41
2023-04-15T06:42:38.893Z,77.47
2023-04-15T06:45:05.288Z,77.45
2023-04-15T06:47:31.727Z,77.75
2023-04-15T06:49:58.158Z,77.81
2023-04-15T06:52:24.559Z,77.64
2023-04-15T06:54:50.952Z,77.70
2023-04-15T06:57:17.339Z,77.49
2023-04-15T06:59:43.767Z,77.54
2023-04-15T07:02:10.204Z,77.13
2023-04-15T07:04:37.028Z,76.96
2023-04-15T07:07:03.544Z,76.35
2023-04-15T07:09:29.917Z,76.41
2023-04-15T07:11:56.322Z,76.72
2023-04-15T07:14:22.763Z,76.12
2023-04-15T07:16:49.243Z,76.50
2023-04-15T07:19:15.664Z,76.71
2023-04-15T07:21:42.132Z,76.44
2023-04-15T07:24:08.529Z,75.69
2023-04-15T07:26:34.934Z,75.83
2023-04-15T07:29:01.500Z,75.56
2023-04-15T07:31:28.206Z,75.67
2023-04-15T07:33:54.609Z,76.13
2023-04-15T07:36:21.022Z,75.16
2023-04-15T07:38:47.645Z,73.28
2023-04-15T07:41:14.046Z,74.36
2023-04-15T07:43:40.473Z,74.20
2023-04-15T07:46:06.904Z,74.38
2023-04-15T07:48:34.913Z,75.52
2023-04-15T07:51:01.936Z,76.75
2023-04-15T07:53:28.325Z,78.65
2023-04-15T07:55:54.725Z,79.03
2023-04-15T07:58:21.126Z,78.65
2023-04-15T08:00:47.521Z,80.13
2023-04-15T08:03:14.034Z,80.41
2023-04-15T08:05:40.497Z,79.56
2023-04-15T08:08:06.918Z,79.20
2023-04-15T08:10:33.655Z,78.82
2023-04-15T08:13:00.249Z,77.38
2023-04-15T08:15:26.828Z,76.51
2023-04-15T08:17:55.441Z,77.26
2023-04-15T08:20:23.019Z,76.20
2023-04-15T08:22:49.582Z,77.03
2023-04-15T08:25:16.030Z,77.85
2023-04-15T08:27:42.421Z,77.46
2023-04-15T08:30:08.814Z,76.47
2023-04-15T08:32:35.314Z,78.68
2023-04-15T08:35:01.710Z,78.45
2023-04-15T08:37:28.134Z,75.99
2023-04-15T08:39:54.710Z,79.31
2023-04-15T08:42:21.087Z,81.67
2023-04-15T08:44:47.523Z,81.57
2023-04-15T08:47:25.624Z,81.38
2023-04-15T08:49:53.089Z,81.83
2023-04-15T08:55:06.906Z,81.77
2023-04-15T08:57:40.196Z,81.92
2023-04-15T09:00:11.629Z,81.08
2023-04-15T09:02:39.447Z,80.36
2023-04-15T09:05:06.774Z,81.55
2023-04-15T09:07:38.377Z,80.38
2023-04-15T09:10:06.974Z,79.59
2023-04-15T09:18:14.296Z,78.43
2023-04-15T09:20:41.545Z,80.87
2023-04-15T09:23:08.110Z,78.21
2023-04-15T09:25:35.142Z,79.90
2023-04-15T09:28:01.964Z,79.95
2023-04-15T09:30:35.950Z,79.09
2023-04-15T09:33:04.510Z,77.66
2023-04-15T09:35:31.484Z,79.73
2023-04-15T09:37:58.692Z,79.69
2023-04-15T09:40:25.308Z,79.08
2023-04-15T09:42:51.894Z,78.95
2023-04-15T09:45:18.763Z,76.59
2023-04-15T09:47:45.266Z,76.62
2023-04-15T09:50:12.669Z,77.67
2023-04-15T09:52:41.268Z,76.63
2023-04-15T09:55:08.857Z,75.79
2023-04-15T09:57:35.435Z,75.23
2023-04-15T10:00:02.081Z,76.01
2023-04-15T10:02:29.712Z,77.43
2023-04-15T10:04:57.230Z,78.75
2023-04-15T10:07:23.810Z,78.13
2023-04-15T10:09:50.661Z,76.21
2023-04-15T10:12:17.136Z,79.08
2023-04-15T10:14:43.769Z,77.81
2023-04-15T10:17:10.276Z,75.73
2023-04-15T10:19:36.764Z,76.74
2023-04-15T10:22:03.198Z,76.39
2023-04-15T10:24:29.667Z,75.68
2023-04-15T10:26:56.517Z,74.68
2023-04-15T10:29:23.101Z,74.40
2023-04-15T10:31:51.784Z,73.82
2023-04-15T10:34:20.304Z,74.84
2023-04-15T10:36:46.686Z,74.80
2023-04-15T10:39:13.068Z,73.11
2023-04-15T10:41:39.453Z,73.81
2023-04-15T10:44:06.056Z,74.77
2023-04-15T10:46:32.545Z,73.61
2023-04-15T10:48:58.947Z,74.24
2023-04-15T10:51:25.333Z,73.62
2023-04-15T10:53:51.719Z,73.97
2023-04-15T10:56:18.089Z,73.27
2023-04-15T10:58:44.493Z,72.27
2023-04-15T11:01:10.886Z,73.60
2023-04-15T11:03:37.412Z,73.30
2023-04-15T11:06:03.930Z,72.67
2023-04-15T11:08:30.314Z,70.71
2023-04-15T11:10:57.023Z,72.10
2023-04-15T11:13:23.450Z,71.91
2023-04-15T11:15:49.870Z,72.43
2023-04-15T11:18:16.277Z,71.46
2023-04-15T11:20:42.671Z,72.43
2023-04-15T11:23:15.061Z,72.21
2023-04-15T11:25:41.868Z,71.34
2023-04-15T11:28:08.342Z,73.31
2023-04-15T11:30:34.801Z,72.11
2023-04-15T11:33:01.255Z,72.88
2023-04-15T11:35:27.674Z,71.89
2023-04-15T11:37:54.085Z,69.88
2023-04-15T11:40:20.482Z,71.24
2023-04-15T11:42:49.867Z,71.50
2023-04-15T11:45:16.562Z,71.29
2023-04-15T11:47:42.982Z,72.57
2023-04-15T11:50:09.403Z,71.70
2023-04-15T11:52:35.789Z,71.06
2023-04-15T11:55:02.191Z,69.58
2023-04-15T11:57:28.628Z,72.03
2023-04-15T11:59:55.037Z,70.34
2023-04-15T12:02:21.496Z,70.00
2023-04-15T12:04:48.160Z,69.96
2023-04-15T12:07:14.645Z,70.63
2023-04-15T12:09:41.037Z,70.73
2023-04-15T12:12:07.458Z,70.03
2023-04-15T12:14:33.830Z,71.25
2023-04-15T12:17:00.525Z,70.87
2023-04-15T12:19:27.574Z,71.47
2023-04-15T12:21:54.043Z,70.76
2023-04-15T12:24:20.442Z,72.37
2023-04-15T12:26:46.851Z,70.98
2023-04-15T12:29:13.287Z,70.29
2023-04-15T12:31:39.766Z,69.52
2023-04-15T12:34:06.439Z,70.73
2023-04-15T12:36:32.987Z,69.66
2023-04-15T12:38:59.385Z,70.06
2023-04-15T12:41:25.786Z,70.10
2023-04-15T12:43:52.179Z,69.27
2023-04-15T12:46:18.586Z,68.26
2023-04-15T12:48:45.019Z,68.61
2023-04-15T12:51:11.406Z,67.55
2023-04-15T12:53:37.811Z,64.80
2023-04-15T12:56:04.205Z,64.24
2023-04-15T12:58:30.638Z,64.99
2023-04-15T13:00:57.033Z,66.27
2023-04-15T13:03:23.497Z,66.50
2023-04-15T13:05:50.000Z,65.97
2023-04-15T13:08:16.645Z,63.47
2023-04-15T13:10:43.063Z,65.77
2023-04-15T13:13:09.460Z,63.15
2023-04-15T13:15:35.894Z,60.94
2023-04-15T13:18:02.413Z,59.99
2023-04-15T13:20:29.663Z,61.62
2023-04-15T13:22:56.251Z,63.55
2023-04-15T13:25:24.831Z,62.36
2023-04-15T13:27:51.243Z,64.84
2023-04-15T13:30:17.655Z,64.13
2023-04-15T13:32:44.136Z,60.19
2023-04-15T13:35:10.563Z,62.12
2023-04-15T13:37:36.951Z,62.82
2023-04-15T13:40:03.331Z,63.56
2023-04-15T13:42:29.732Z,63.46
2023-04-15T13:44:56.123Z,64.86
2023-04-15T13:47:22.566Z,64.04
2023-04-15T13:49:48.996Z,65.78
2023-04-15T13:52:16.452Z,62.26
2023-04-15T13:54:44.000Z,63.26
2023-04-15T13:57:11.595Z,62.16
2023-04-15T13:59:38.358Z,63.96
2023-04-15T14:02:04.859Z,63.36
2023-04-15T14:04:31.407Z,63.69
2023-04-15T14:06:57.808Z,64.01
2023-04-15T14:09:26.292Z,64.79
2023-04-15T14:11:52.959Z,63.72
2023-04-15T14:14:19.434Z,64.37
2023-04-15T14:16:45.893Z,63.22
2023-04-15T14:19:12.447Z,65.19
2023-04-15T14:21:38.835Z,64.43
2023-04-15T14:24:05.243Z,64.40
2023-04-15T14:26:31.620Z,65.69
2023-04-15T14:28:58.034Z,64.59
2023-04-15T14:31:24.449Z,65.14
2023-04-15T14:33:50.884Z,65.50
2023-04-15T14:36:17.308Z,66.26
2023-04-15T14:38:43.725Z,64.55
2023-04-15T14:41:10.108Z,64.11
2023-04-15T14:43:36.566Z,65.33
2023-04-15T14:46:03.025Z,64.25
2023-04-15T14:48:29.499Z,63.82
2023-04-15T14:50:55.942Z,65.36
2023-04-15T14:53:22.318Z,64.98
2023-04-15T14:55:48.717Z,66.06
2023-04-15T14:58:15.126Z,63.98
2023-04-15T15:00:41.601Z,64.16
2023-04-15T15:03:08.097Z,63.97
2023-04-15T15:05:34.675Z,64.95
2023-04-15T15:08:01.187Z,65.80
2023-04-15T15:10:44.672Z,64.19
2023-04-15T15:13:13.987Z,66.33
2023-04-15T15:15:40.476Z,64.36
2023-04-15T15:18:06.946Z,66.39
2023-04-15T15:20:33.423Z,66.11
2023-04-15T15:22:59.849Z,66.03
2023-04-15T15:25:26.257Z,67.15
2023-04-15T15:27:52.689Z,68.04
2023-04-15T15:30:19.093Z,67.09
2023-04-15T15:32:45.610Z,66.53
2023-04-15T15:35:12.057Z,67.72
2023-04-15T15:37:38.459Z,69.06
2023-04-15T15:40:04.943Z,67.98
2023-04-15T15:42:31.346Z,69.73
2023-04-15T15:44:57.722Z,69.08
2023-04-15T15:47:24.146Z,69.43
2023-04-15T15:49:50.629Z,70.55
2023-04-15T15:52:17.022Z,69.89
2023-04-15T15:54:43.466Z,69.91
2023-04-15T15:57:09.852Z,68.27
2023-04-15T15:59:36.249Z,69.43
2023-04-15T16:02:03.087Z,70.65
2023-04-15T16:04:29.811Z,69.25
2023-04-15T16:06:56.402Z,70.22
2023-04-15T16:09:22.848Z,70.50
2023-04-15T16:11:49.254Z,71.52
2023-04-15T16:14:15.665Z,71.61
2023-04-15T16:16:42.157Z,71.81
2023-04-15T16:19:08.592Z,71.45
2023-04-15T16:21:35.060Z,71.60
2023-04-15T16:24:01.702Z,71.44
2023-04-15T16:26:28.118Z,70.16
2023-04-15T16:28:54.524Z,70.72
2023-04-15T16:31:20.930Z,70.18
2023-04-15T16:33:47.366Z,70.16
2023-04-15T16:36:13.860Z,70.92
2023-04-15T16:38:40.260Z,70.95
2023-04-15T16:41:06.745Z,70.77
2023-04-15T16:43:33.157Z,70.26
2023-04-15T16:45:59.606Z,69.91
2023-04-15T16:48:26.102Z,69.72
2023-04-15T16:50:52.574Z,70.53
2023-04-15T16:53:19.002Z,71.52
2023-04-15T16:55:45.412Z,70.63
2023-04-15T16:58:11.808Z,70.65
2023-04-15T17:00:38.255Z,70.75
2023-04-15T17:03:04.876Z,70.44
2023-04-15T17:05:31.425Z,70.65
2023-04-15T17:07:57.858Z,70.45
2023-04-15T17:10:24.268Z,70.49
2023-04-15T17:12:50.650Z,70.50
2023-04-15T17:15:17.062Z,70.95
2023-04-15T17:17:43.532Z,72.20
2023-04-15T17:20:09.943Z,70.96
2023-04-15T17:22:36.364Z,71.49
2023-04-15T17:25:02.777Z,71.70
2023-04-15T17:27:29.250Z,72.37
2023-04-15T17:29:55.688Z,72.00
2023-04-15T17:32:22.128Z,72.64
2023-04-15T17:34:49.642Z,73.61
2023-04-15T17:37:17.659Z,73.25
2023-04-15T17:39:44.071Z,73.69
2023-04-15T17:42:10.497Z,73.06
2023-04-15T17:44:36.901Z,73.79
2023-04-15T17:47:03.334Z,73.97
2023-04-15T17:49:29.769Z,73.66
2023-04-15T17:51:56.177Z,73.81
2023-04-15T17:54:22.613Z,73.15
2023-04-15T17:56:49.014Z,74.20
2023-04-15T17:59:15.405Z,75.04
2023-04-15T18:01:41.890Z,75.66
2023-04-15T18:04:08.708Z,75.65
2023-04-15T18:06:35.342Z,75.99
2023-04-15T18:09:01.795Z,75.31
2023-04-15T18:11:28.212Z,75.31
2023-04-15T18:13:54.654Z,75.21
2023-04-15T18:16:21.100Z,75.63
2023-04-15T18:18:47.532Z,75.18
2023-04-15T18:21:14.094Z,74.91
2023-04-15T18:23:40.578Z,75.60
2023-04-15T18:26:07.024Z,75.96
2023-04-15T18:28:33.455Z,72.92
2023-04-15T18:30:59.874Z,69.08
2023-04-15T18:33:26.308Z,68.28
2023-04-15T18:35:52.700Z,63.33
2023-04-15T18:38:19.117Z,64.30
2023-04-15T18:40:45.566Z,66.85
2023-04-15T18:43:11.979Z,68.93
2023-04-15T18:45:38.493Z,70.54
2023-04-15T18:48:04.939Z,70.26
2023-04-15T18:50:31.372Z,71.76
2023-04-15T18:52:57.766Z,73.28
2023-04-15T18:55:24.180Z,74.17
2023-04-15T18:57:50.549Z,74.31
2023-04-15T19:00:17.831Z,74.25
2023-04-15T19:02:44.431Z,74.72
2023-04-15T19:05:11.024Z,73.77
2023-04-15T19:07:37.441Z,73.18
2023-04-15T19:10:03.877Z,71.15
2023-04-15T19:12:30.487Z,70.14
2023-04-15T19:14:56.919Z,70.64
2023-04-15T19:17:23.374Z,70.39
2023-04-15T19:19:49.821Z,69.52
2023-04-15T19:22:16.206Z,67.14
2023-04-15T19:24:42.615Z,68.01
2023-04-15T19:27:09.013Z,66.25
2023-04-15T19:29:35.390Z,66.93
2023-04-15T19:32:01.788Z,67.83
2023-04-15T19:34:28.162Z,68.73
2023-04-15T19:36:54.603Z,69.33
2023-04-15T19:39:21.007Z,69.14
2023-04-15T19:41:47.424Z,69.49
2023-04-15T19:44:13.912Z,69.60
2023-04-15T19:46:40.373Z,67.74
2023-04-15T19:49:07.040Z,68.19
2023-04-15T19:51:33.682Z,69.16
2023-04-15T19:54:00.118Z,69.93
2023-04-15T19:56:26.527Z,70.61
2023-04-15T19:58:53.337Z,71.48
2023-04-15T20:01:19.809Z,71.01
2023-04-15T20:03:46.447Z,71.29
2023-04-15T20:06:13.039Z,70.55
2023-04-15T20:08:39.435Z,70.71
2023-04-15T20:11:05.893Z,70.74
2023-04-15T20:13:32.315Z,71.30
2023-04-15T20:15:58.853Z,71.70
2023-04-15T20:18:25.290Z,72.27
2023-04-15T20:20:51.716Z,71.13
2023-04-15T20:23:18.168Z,71.34
2023-04-15T20:25:44.591Z,70.61
2023-04-15T20:28:10.985Z,70.41
2023-04-15T20:30:37.444Z,70.81
2023-04-15T20:33:03.913Z,69.82
2023-04-15T20:35:30.357Z,70.58
2023-04-15T20:37:56.756Z,69.52
2023-04-15T20:40:23.220Z,70.92
2023-04-15T20:42:49.969Z,70.11
2023-04-15T20:45:18.562Z,69.69
2023-04-15T20:47:45.017Z,69.51
2023-04-15T20:50:11.841Z,69.61
2023-04-15T20:52:39.413Z,70.43
2023-04-15T20:55:06.025Z,70.11
2023-04-15T20:57:33.574Z,70.84
2023-04-15T20:59:59.968Z,70.00
2023-04-15T21:02:26.536Z,68.44
2023-04-15T21:04:53.070Z,68.71
2023-04-15T21:07:19.479Z,67.72
2023-04-15T21:09:45.895Z,68.21
2023-04-15T21:12:12.317Z,68.68
2023-04-15T21:14:38.740Z,68.98
2023-04-15T21:17:07.789Z,68.86
2023-04-15T21:19:35.940Z,66.88
2023-04-15T21:22:02.533Z,69.02
2023-04-15T21:24:28.982Z,69.63
2023-04-15T21:26:55.387Z,69.08
2023-04-15T21:29:21.770Z,69.16
2023-04-15T21:31:48.908Z,70.00
2023-04-15T21:34:15.316Z,70.38
2023-04-15T21:36:41.706Z,69.67
2023-04-15T21:39:08.287Z,69.93
2023-04-15T21:41:34.771Z,69.29
2023-04-15T21:44:01.216Z,70.88
2023-04-15T21:46:32.971Z,71.33
2023-04-15T21:49:01.498Z,71.07
2023-04-15T21:51:27.895Z,69.56
2023-04-15T21:53:54.338Z,69.64
2023-04-15T21:56:20.734Z,69.30
2023-04-15T21:58:47.177Z,69.51
2023-04-15T22:01:13.676Z,68.88
2023-04-15T22:03:40.193Z,69.36
2023-04-15T22:06:07.219Z,68.96
2023-04-15T22:08:48.236Z,68.78
2023-04-15T22:11:22.221Z,68.50
2023-04-15T22:13:48.603Z,67.91
2023-04-15T22:16:15.059Z,68.57
2023-04-15T22:18:41.505Z,68.18
2023-04-15T22:21:07.940Z,68.20
2023-04-15T22:23:34.387Z,67.67
2023-04-15T22:26:02.106Z,68.44
2023-04-15T22:28:28.506Z,67.68
2023-04-15T22:30:54.927Z,66.62
2023-04-15T22:33:21.350Z,64.83
2023-04-15T22:35:47.773Z,64.65
2023-04-15T22:38:14.196Z,65.83
2023-04-15T22:40:40.619Z,66.33
2023-04-15T22:43:07.050Z,66.53
2023-04-15T22:45:33.443Z,67.60
2023-04-15T22:47:59.916Z,67.98
2023-04-15T22:50:26.962Z,67.52
2023-04-15T22:52:53.540Z,67.87
2023-04-15T22:55:21.129Z,67.22
2023-04-15T22:57:47.732Z,66.54
2023-04-15T23:00:14.308Z,66.24
2023-04-15T23:02:42.940Z,66.54
2023-04-15T23:05:11.968Z,65.91
2023-04-15T23:07:39.321Z,66.26
2023-04-15T23:10:06.735Z,65.44
2023-04-15T23:12:34.343Z,66.28
2023-04-15T23:15:01.919Z,66.92
2023-04-15T23:17:28.550Z,66.62
2023-04-15T23:19:56.111Z,66.48
2023-04-15T23:22:22.586Z,65.92
2023-04-15T23:24:49.002Z,64.08
2023-04-15T23:27:15.441Z,63.84
2023-04-15T23:29:41.854Z,63.39
2023-04-15T23:32:08.264Z,62.03
2023-04-15T23:34:34.674Z,63.29
2023-04-15T23:37:01.138Z,63.65
2023-04-15T23:39:27.614Z,63.75
2023-04-15T23:41:54.116Z,65.21
2023-04-15T23:44:20.985Z,65.41
2023-04-15T23:46:48.642Z,65.56
2023-04-15T23:49:15.070Z,66.15
2023-04-15T23:51:41.447Z,65.98
2023-04-15T23:54:07.837Z,65.72
2023-04-15T23:56:34.911Z,65.55
2023-04-15T23:59:01.511Z,64.66
